KBHC

Baxley Municipal Airport

Baxley, Georgia, USA
METAR KBHC 180655Z AUTO 20003KT 10SM CLR 15/15 A3014 RMK AO2
Observed Flight Rules
Feb-18 @ 06:55 UTC (19 minutes ago) Visual Flight Rules
Wind Visibility Clouds
200° at 3 knots 10 miles
  • Clear skies
Temperatures Readings
Current 15°C / 59°F
Dewpoint 15°C / 59°F
Humidity 100%
Altimeter 30.14" Hg
Pressure 1021 hPa
Elevation 61
METAR KBHC 180655Z AUTO 20003KT 10SM CLR 15/15 A3014 RMK AO2
Observed Flight Rules
Feb-18 @ 06:55 UTC
(19 minutes ago)
VFR
Wind Visibility
200° at 3 knots 10 miles
Clouds
  • Clear skies
Temperature Dewpoint
15°C / 59°F 15°C / 59°F
Humidity Altimeter Pressure
100% 30.14" Hg 1021 hPa